createdAt,value
2022-08-11T00:00:48.754Z,19.88
2022-08-11T00:01:48.720Z,19.99
2022-08-11T00:02:48.776Z,19.89
2022-08-11T00:03:48.699Z,19.96
2022-08-11T00:04:48.685Z,19.91
2022-08-11T00:05:48.682Z,19.96
2022-08-11T00:06:48.674Z,19.99
2022-08-11T00:07:48.661Z,19.88
2022-08-11T00:08:48.647Z,19.92
2022-08-11T00:09:48.636Z,19.92
2022-08-11T00:10:48.631Z,19.88
2022-08-11T00:11:48.624Z,19.85
2022-08-11T00:12:48.600Z,19.89
2022-08-11T00:13:48.597Z,19.84
2022-08-11T00:14:48.577Z,19.86
2022-08-11T00:15:48.750Z,19.84
2022-08-11T00:16:48.563Z,19.84
2022-08-11T00:17:48.545Z,19.71
2022-08-11T00:18:48.536Z,19.67
2022-08-11T00:20:12.715Z,19.70
2022-08-11T00:20:49.506Z,19.76
2022-08-11T00:22:03.812Z,19.67
2022-08-11T00:22:49.491Z,19.62
2022-08-11T00:23:48.476Z,19.63
2022-08-11T00:24:54.793Z,19.59
2022-08-11T00:25:49.451Z,19.55
2022-08-11T00:26:48.466Z,19.52
2022-08-11T00:27:48.436Z,19.56
2022-08-11T00:28:48.423Z,19.49
2022-08-11T00:29:51.646Z,19.48
2022-08-11T00:30:48.401Z,19.47
2022-08-11T00:31:48.383Z,19.55
2022-08-11T00:32:48.388Z,19.48
2022-08-11T00:33:48.365Z,19.55
2022-08-11T00:34:48.359Z,19.34
2022-08-11T00:35:51.906Z,19.37
2022-08-11T00:36:49.327Z,19.37
2022-08-11T00:37:48.343Z,19.36
2022-08-11T00:38:48.312Z,19.31
2022-08-11T00:39:48.362Z,19.29
2022-08-11T00:40:48.287Z,19.26
2022-08-11T00:41:48.270Z,19.27
2022-08-11T00:42:49.279Z,19.22
2022-08-11T00:43:48.248Z,19.29
2022-08-11T00:44:48.239Z,19.26
2022-08-11T00:45:48.228Z,19.27
2022-08-11T00:46:48.223Z,19.26
2022-08-11T00:47:48.212Z,19.34
2022-08-11T00:48:48.195Z,19.31
2022-08-11T00:49:48.190Z,19.31
2022-08-11T00:50:48.175Z,19.27
2022-08-11T00:52:04.256Z,19.37
2022-08-11T00:52:49.163Z,19.29
2022-08-11T00:53:48.137Z,19.29
2022-08-11T00:54:48.125Z,19.27
2022-08-11T00:55:55.922Z,19.30
2022-08-11T00:56:49.114Z,19.36
2022-08-11T00:57:48.100Z,19.31
2022-08-11T00:58:50.805Z,19.30
2022-08-11T00:59:48.065Z,19.22
2022-08-11T01:00:48.135Z,19.26
2022-08-11T01:01:48.043Z,19.30
2022-08-11T01:02:48.048Z,19.22
2022-08-11T01:03:48.025Z,19.27
2022-08-11T01:04:52.335Z,19.26
2022-08-11T01:05:49.000Z,19.16
2022-08-11T01:06:47.992Z,19.16
2022-08-11T01:08:00.486Z,19.00
2022-08-11T01:08:48.968Z,19.15
2022-08-11T01:09:47.951Z,19.09
2022-08-11T01:10:47.946Z,19.07
2022-08-11T01:11:55.960Z,19.00
2022-08-11T01:12:48.934Z,18.99
2022-08-11T01:13:47.928Z,18.89
2022-08-11T01:14:47.911Z,19.00
2022-08-11T01:15:57.413Z,19.02
2022-08-11T01:16:48.919Z,18.98
2022-08-11T01:17:47.868Z,18.98
2022-08-11T01:18:47.866Z,18.99
2022-08-11T01:20:46.665Z,19.02
2022-08-11T01:20:49.443Z,18.93
2022-08-11T01:21:47.822Z,18.99
2022-08-11T01:22:47.815Z,18.95
2022-08-11T01:23:47.815Z,18.98
2022-08-11T01:24:47.791Z,18.93
2022-08-11T01:25:57.290Z,18.95
2022-08-11T01:26:48.775Z,18.90
2022-08-11T01:27:47.758Z,18.84
2022-08-11T01:28:47.753Z,18.83
2022-08-11T01:29:49.296Z,18.80
2022-08-11T01:30:47.739Z,18.78
2022-08-11T01:31:47.709Z,18.84
2022-08-11T01:32:47.703Z,18.73
2022-08-11T01:33:47.693Z,18.77
2022-08-11T01:34:47.696Z,18.73
2022-08-11T01:35:47.663Z,18.78
2022-08-11T01:36:47.657Z,18.74
2022-08-11T01:37:48.642Z,18.68
2022-08-11T01:38:47.633Z,18.73
2022-08-11T01:39:47.743Z,18.73
2022-08-11T01:40:47.608Z,18.65
2022-08-11T01:41:47.627Z,18.71
2022-08-11T01:42:47.592Z,18.60
2022-08-11T01:43:47.583Z,18.60
2022-08-11T01:44:47.588Z,18.50
2022-08-11T01:45:47.552Z,18.49
2022-08-11T01:46:47.544Z,18.47
2022-08-11T01:47:52.560Z,18.44
2022-08-11T01:48:48.521Z,18.47
2022-08-11T01:50:07.688Z,18.41
2022-08-11T01:50:48.518Z,18.40
2022-08-11T01:51:47.521Z,18.40
2022-08-11T01:52:47.481Z,18.37
2022-08-11T01:53:47.461Z,18.33
2022-08-11T01:54:47.465Z,18.33
2022-08-11T01:55:47.455Z,18.35
2022-08-11T01:56:47.435Z,18.25
2022-08-11T01:57:47.419Z,18.26
2022-08-11T01:58:47.420Z,18.18
2022-08-11T01:59:47.399Z,18.20
2022-08-11T02:00:47.540Z,18.19
2022-08-11T02:01:47.377Z,18.19
2022-08-11T02:02:47.370Z,18.16
2022-08-11T02:03:47.361Z,18.11
2022-08-11T02:04:47.341Z,18.08
2022-08-11T02:05:47.361Z,18.10
2022-08-11T02:06:47.326Z,18.05
2022-08-11T02:07:47.306Z,18.04
2022-08-11T02:08:50.440Z,18.03
2022-08-11T02:09:49.811Z,18.04
2022-08-11T02:10:50.786Z,18.04
2022-08-11T02:11:47.288Z,18.03
2022-08-11T02:12:52.661Z,18.04
2022-08-11T02:13:48.954Z,18.08
2022-08-11T02:15:04.411Z,18.04
2022-08-11T02:15:48.212Z,18.03
2022-08-11T02:16:47.209Z,18.03
2022-08-11T02:17:47.208Z,18.01
2022-08-11T02:18:47.182Z,17.95
2022-08-11T02:19:47.179Z,18.00
2022-08-11T02:20:47.156Z,17.97
2022-08-11T02:21:47.150Z,17.83
2022-08-11T02:22:47.159Z,17.82
2022-08-11T02:24:04.509Z,17.78
2022-08-11T02:24:48.112Z,17.76
2022-08-11T02:25:47.102Z,17.76
2022-08-11T02:26:47.099Z,17.72
2022-08-11T02:27:47.094Z,17.76
2022-08-11T02:28:47.074Z,17.68
2022-08-11T02:29:47.056Z,17.64
2022-08-11T02:30:47.051Z,17.64
2022-08-11T02:32:24.306Z,17.68
2022-08-11T02:32:48.053Z,17.76
2022-08-11T02:33:47.007Z,17.65
2022-08-11T02:34:59.560Z,17.71
2022-08-11T02:35:47.983Z,17.67
2022-08-11T02:36:46.980Z,17.74
2022-08-11T02:37:46.969Z,17.72
2022-08-11T02:38:46.973Z,17.64
2022-08-11T02:39:46.979Z,17.70
2022-08-11T02:40:46.939Z,17.65
2022-08-11T02:41:46.922Z,17.68
2022-08-11T02:42:47.453Z,17.68
2022-08-11T02:43:50.895Z,17.60
2022-08-11T02:44:46.887Z,17.67
2022-08-11T02:45:46.878Z,17.76
2022-08-11T02:46:46.866Z,17.67
2022-08-11T02:47:46.871Z,17.76
2022-08-11T02:48:46.860Z,17.76
2022-08-11T02:49:46.844Z,17.80
2022-08-11T02:50:47.824Z,17.72
2022-08-11T02:51:46.810Z,17.71
2022-08-11T02:52:46.803Z,17.67
2022-08-11T02:53:54.450Z,17.78
2022-08-11T02:54:47.781Z,17.72
2022-08-11T02:55:57.819Z,17.67
2022-08-11T02:56:47.757Z,17.68
2022-08-11T02:57:46.738Z,17.65
2022-08-11T02:58:46.747Z,17.60
2022-08-11T02:59:46.724Z,17.65
2022-08-11T03:00:46.705Z,17.74
2022-08-11T03:01:46.790Z,17.71
2022-08-11T03:02:46.727Z,17.67
2022-08-11T03:03:46.694Z,17.52
2022-08-11T03:04:46.660Z,17.59
2022-08-11T03:05:46.646Z,17.60
2022-08-11T03:06:46.638Z,17.60
2022-08-11T03:07:46.623Z,17.51
2022-08-11T03:08:46.621Z,17.49
2022-08-11T03:09:46.620Z,17.54
2022-08-11T03:10:46.593Z,17.51
2022-08-11T03:11:46.579Z,17.36
2022-08-11T03:12:51.622Z,17.49
2022-08-11T03:13:47.576Z,17.36
2022-08-11T03:14:46.567Z,17.45
2022-08-11T03:15:46.535Z,17.36
2022-08-11T03:16:46.560Z,17.36
2022-08-11T03:17:46.519Z,17.45
2022-08-11T03:18:46.515Z,17.36
2022-08-11T03:19:46.514Z,17.46
2022-08-11T03:20:46.482Z,17.49
2022-08-11T03:22:01.169Z,17.52
2022-08-11T03:22:47.460Z,17.38
2022-08-11T03:23:46.447Z,17.41
2022-08-11T03:24:46.470Z,17.45
2022-08-11T03:25:46.431Z,17.36
2022-08-11T03:26:46.433Z,17.46
2022-08-11T03:27:46.403Z,17.36
2022-08-11T03:28:46.405Z,17.36
2022-08-11T03:29:46.387Z,17.46
2022-08-11T03:30:46.366Z,17.39
2022-08-11T03:31:46.350Z,17.41
2022-08-11T03:32:46.349Z,17.41
2022-08-11T03:33:46.336Z,17.41
2022-08-11T03:34:46.356Z,17.39
2022-08-11T03:35:46.311Z,17.39
2022-08-11T03:37:15.512Z,17.34
2022-08-11T03:37:47.286Z,17.23
2022-08-11T03:38:46.281Z,17.29
2022-08-11T03:39:51.122Z,17.30
2022-08-11T03:40:47.264Z,17.27
2022-08-11T03:42:02.302Z,17.30
2022-08-11T03:42:47.236Z,17.26
2022-08-11T03:43:58.461Z,17.22
2022-08-11T03:44:47.232Z,17.22
2022-08-11T03:45:46.219Z,17.20
2022-08-11T03:46:46.183Z,17.23
2022-08-11T03:47:55.161Z,17.14
2022-08-11T03:48:46.167Z,17.04
2022-08-11T03:49:46.150Z,17.09
2022-08-11T03:50:46.155Z,17.06
2022-08-11T03:51:51.580Z,17.06
2022-08-11T03:52:47.120Z,17.04
2022-08-11T03:53:46.104Z,17.01
2022-08-11T03:54:46.112Z,17.09
2022-08-11T03:55:46.089Z,16.93
2022-08-11T03:56:46.096Z,16.94
2022-08-11T03:57:46.055Z,16.91
2022-08-11T03:58:46.241Z,16.91
2022-08-11T03:59:46.047Z,17.02
2022-08-11T04:00:46.030Z,17.04
2022-08-11T04:01:46.157Z,17.05
2022-08-11T04:02:46.022Z,17.06
2022-08-11T04:03:45.990Z,17.09
2022-08-11T04:04:50.542Z,17.06
2022-08-11T04:05:46.962Z,17.02
2022-08-11T04:06:45.954Z,17.06
2022-08-11T04:07:45.943Z,17.09
2022-08-11T04:08:45.959Z,17.09
2022-08-11T04:09:45.955Z,17.09
2022-08-11T04:10:45.932Z,17.06
2022-08-11T04:11:45.904Z,17.06
2022-08-11T04:12:47.901Z,17.08
2022-08-11T04:13:45.880Z,17.04
2022-08-11T04:14:45.864Z,17.02
2022-08-11T04:15:45.866Z,17.06
2022-08-11T04:16:45.849Z,17.05
2022-08-11T04:17:45.842Z,17.08
2022-08-11T04:18:45.835Z,17.02
2022-08-11T04:19:45.815Z,17.01
2022-08-11T04:20:45.809Z,16.93
2022-08-11T04:21:45.787Z,17.01
2022-08-11T04:22:45.773Z,17.01
2022-08-11T04:24:35.057Z,16.93
2022-08-11T04:24:50.320Z,16.97
2022-08-11T04:25:58.204Z,16.99
2022-08-11T04:26:46.741Z,16.93
2022-08-11T04:27:45.716Z,16.99
2022-08-11T04:28:49.743Z,16.94
2022-08-11T04:30:03.763Z,16.97
2022-08-11T04:30:46.688Z,17.01
2022-08-11T04:31:52.293Z,16.94
2022-08-11T04:32:46.659Z,17.04
2022-08-11T04:33:45.646Z,16.93
2022-08-11T04:34:45.645Z,16.90
2022-08-11T04:35:50.706Z,17.01
2022-08-11T04:36:46.620Z,17.01
2022-08-11T04:37:51.256Z,16.93
2022-08-11T04:38:46.593Z,16.96
2022-08-11T04:39:45.633Z,16.86
2022-08-11T04:40:45.584Z,16.86
2022-08-11T04:41:45.578Z,16.93
2022-08-11T04:42:45.543Z,16.89
2022-08-11T04:44:05.570Z,16.89
2022-08-11T04:44:46.519Z,16.90
2022-08-11T04:45:45.507Z,16.97
2022-08-11T04:46:45.515Z,16.96
2022-08-11T04:48:01.783Z,16.87
2022-08-11T04:48:46.483Z,16.84
2022-08-11T04:49:45.465Z,16.89
2022-08-11T04:50:45.461Z,16.84
2022-08-11T04:51:46.465Z,16.87
2022-08-11T04:52:45.431Z,16.90
2022-08-11T04:53:45.426Z,16.84
2022-08-11T04:54:46.409Z,16.89
2022-08-11T04:55:45.394Z,16.84
2022-08-11T04:56:45.391Z,16.86
2022-08-11T04:57:45.378Z,16.87
2022-08-11T04:58:45.371Z,16.87
2022-08-11T04:59:45.356Z,16.96
2022-08-11T05:00:45.334Z,16.94
2022-08-11T05:01:45.401Z,16.97
2022-08-11T05:02:45.312Z,16.91
2022-08-11T05:03:45.305Z,16.94
2022-08-11T05:04:45.300Z,17.01
2022-08-11T05:05:56.315Z,17.06
2022-08-11T05:06:46.288Z,17.08
2022-08-11T05:07:45.293Z,17.05
2022-08-11T05:08:45.242Z,17.06
2022-08-11T05:09:45.242Z,17.12
2022-08-11T05:10:45.232Z,17.11
2022-08-11T05:11:45.225Z,17.16
2022-08-11T05:12:45.203Z,17.16
2022-08-11T05:13:45.197Z,17.15
2022-08-11T05:14:45.191Z,17.11
2022-08-11T05:15:48.309Z,17.20
2022-08-11T05:16:46.182Z,17.14
2022-08-11T05:17:45.143Z,17.20
2022-08-11T05:18:45.132Z,17.15
2022-08-11T05:19:45.127Z,17.15
2022-08-11T05:20:45.119Z,17.23
2022-08-11T05:21:45.493Z,17.22
2022-08-11T05:22:45.104Z,17.20
2022-08-11T05:23:45.076Z,17.23
2022-08-11T05:24:45.074Z,17.30
2022-08-11T05:26:44.508Z,17.26
2022-08-11T05:26:49.169Z,17.38
2022-08-11T05:27:45.054Z,17.33
2022-08-11T05:28:45.019Z,17.39
2022-08-11T05:29:45.012Z,17.39
2022-08-11T05:30:44.999Z,17.38
2022-08-11T05:31:45.006Z,17.36
2022-08-11T05:32:45.001Z,17.45
2022-08-11T05:33:44.961Z,17.51
2022-08-11T05:34:44.950Z,17.49
2022-08-11T05:36:00.590Z,17.64
2022-08-11T05:36:45.931Z,17.63
2022-08-11T05:37:44.930Z,17.63
2022-08-11T05:38:44.904Z,17.67
2022-08-11T05:39:44.957Z,17.82
2022-08-11T05:40:51.205Z,17.95
2022-08-11T05:41:45.882Z,18.08
2022-08-11T05:42:44.875Z,18.16
2022-08-11T05:44:21.585Z,18.37
2022-08-11T05:44:45.838Z,18.45
2022-08-11T05:45:58.262Z,18.59
2022-08-11T05:46:45.815Z,18.71
2022-08-11T05:47:44.821Z,18.78
2022-08-11T05:48:44.800Z,18.93
2022-08-11T05:49:44.802Z,19.08
2022-08-11T05:50:44.770Z,19.19
2022-08-11T05:51:52.474Z,19.27
2022-08-11T05:52:46.842Z,19.52
2022-08-11T05:53:46.426Z,19.63
2022-08-11T05:54:46.194Z,19.79
2022-08-11T05:56:02.186Z,19.85
2022-08-11T05:56:45.705Z,20.06
2022-08-11T05:57:51.010Z,20.11
2022-08-11T05:58:45.678Z,20.29
2022-08-11T05:59:44.677Z,20.44
2022-08-11T06:00:44.664Z,20.69
2022-08-11T06:01:44.833Z,20.97
2022-08-11T06:02:44.713Z,21.07
2022-08-11T06:03:58.632Z,21.24
2022-08-11T06:04:45.614Z,21.25
2022-08-11T06:05:44.601Z,21.22
2022-08-11T06:06:46.849Z,21.42
2022-08-11T06:07:47.229Z,21.69
2022-08-11T06:08:44.581Z,21.83
2022-08-11T06:09:44.560Z,21.95
2022-08-11T06:10:44.550Z,22.10
2022-08-11T06:11:45.098Z,22.22
2022-08-11T06:12:44.540Z,22.28
2022-08-11T06:13:44.530Z,22.45
2022-08-11T06:14:44.504Z,22.59
2022-08-11T06:15:44.487Z,22.75
2022-08-11T06:16:44.478Z,22.90
2022-08-11T06:17:44.475Z,23.21
2022-08-11T06:18:44.472Z,23.54
2022-08-11T06:19:44.446Z,23.87
2022-08-11T06:20:44.432Z,24.11
2022-08-11T06:21:44.421Z,24.33
2022-08-11T06:22:44.409Z,24.43
2022-08-11T06:23:44.420Z,24.68
2022-08-11T06:24:44.390Z,24.78
2022-08-11T06:25:44.378Z,25.08
2022-08-11T06:27:10.714Z,25.25
2022-08-11T06:27:45.361Z,25.53
2022-08-11T06:28:44.354Z,25.65
2022-08-11T06:29:48.136Z,25.87
2022-08-11T06:30:45.325Z,25.99
2022-08-11T06:31:44.315Z,26.09
2022-08-11T06:32:44.295Z,26.00
2022-08-11T06:33:44.318Z,25.72
2022-08-11T06:34:44.272Z,25.93
2022-08-11T06:35:44.265Z,26.00
2022-08-11T06:36:44.258Z,26.06
2022-08-11T06:37:44.243Z,26.00
2022-08-11T06:38:44.241Z,26.18
2022-08-11T06:39:44.346Z,26.22
2022-08-11T06:40:44.207Z,26.22
2022-08-11T06:41:44.201Z,26.34
2022-08-11T06:42:44.192Z,26.51
2022-08-11T06:43:44.192Z,26.65
2022-08-11T06:44:45.195Z,26.45
2022-08-11T06:45:44.156Z,26.48
2022-08-11T06:46:44.146Z,26.51
2022-08-11T06:47:44.141Z,26.52
2022-08-11T06:48:44.134Z,26.65
2022-08-11T06:49:44.121Z,26.74
2022-08-11T06:50:44.100Z,26.75
2022-08-11T06:51:44.094Z,26.88
2022-08-11T06:52:44.111Z,26.93
2022-08-11T06:53:44.108Z,26.96
2022-08-11T06:54:45.055Z,27.02
2022-08-11T06:55:57.068Z,26.96
2022-08-11T06:56:45.037Z,26.92
2022-08-11T06:57:44.020Z,26.85
2022-08-11T06:58:44.010Z,26.96
2022-08-11T06:59:44.017Z,27.05
2022-08-11T07:00:44.002Z,27.07
2022-08-11T07:01:44.070Z,26.84
2022-08-11T07:02:43.995Z,26.78
2022-08-11T07:03:43.962Z,26.80
2022-08-11T07:04:43.943Z,26.75
2022-08-11T07:05:44.035Z,26.58
2022-08-11T07:06:51.165Z,26.55
2022-08-11T07:07:44.921Z,26.44
2022-08-11T07:08:43.906Z,26.44
2022-08-11T07:09:43.895Z,26.45
2022-08-11T07:10:43.889Z,26.45
2022-08-11T07:11:43.872Z,26.45
2022-08-11T07:12:43.874Z,26.26
2022-08-11T07:13:45.538Z,26.22
2022-08-11T07:14:43.838Z,26.22
2022-08-11T07:16:12.673Z,26.10
2022-08-11T07:16:44.823Z,26.19
2022-08-11T07:17:43.810Z,26.16
2022-08-11T07:18:43.831Z,26.28
2022-08-11T07:19:43.786Z,26.34
2022-08-11T07:20:43.773Z,26.52
2022-08-11T07:22:02.844Z,26.44
2022-08-11T07:22:44.749Z,26.45
2022-08-11T07:23:43.758Z,26.66
2022-08-11T07:25:01.817Z,26.74
2022-08-11T07:25:44.736Z,26.75
2022-08-11T07:26:43.719Z,26.73
2022-08-11T07:27:43.703Z,26.77
2022-08-11T07:28:43.686Z,26.75
2022-08-11T07:29:43.696Z,26.88
2022-08-11T07:30:43.667Z,26.88
2022-08-11T07:31:43.693Z,26.88
2022-08-11T07:32:43.642Z,26.89
2022-08-11T07:34:05.717Z,26.74
2022-08-11T07:34:44.635Z,26.85
2022-08-11T07:35:43.612Z,26.92
2022-08-11T07:36:43.609Z,26.99
2022-08-11T07:37:43.588Z,27.00
2022-08-11T07:38:43.578Z,26.95
2022-08-11T07:39:43.621Z,26.96
2022-08-11T07:40:43.557Z,26.95
2022-08-11T07:41:43.563Z,26.99
2022-08-11T07:42:43.541Z,26.96
2022-08-11T07:43:43.522Z,27.00
2022-08-11T07:44:43.517Z,27.05
2022-08-11T07:45:43.496Z,27.10
2022-08-11T07:46:43.537Z,27.03
2022-08-11T07:47:43.477Z,26.95
2022-08-11T07:48:43.462Z,26.81
2022-08-11T07:49:43.456Z,26.84
2022-08-11T07:50:43.443Z,26.81
2022-08-11T07:51:43.437Z,26.85
2022-08-11T07:52:43.508Z,26.84
2022-08-11T07:53:58.813Z,26.95
2022-08-11T07:54:46.357Z,26.89
2022-08-11T07:55:49.587Z,26.97
2022-08-11T07:56:54.841Z,26.92
2022-08-11T07:58:14.304Z,27.10
2022-08-11T07:58:45.462Z,27.05
2022-08-11T08:00:00.379Z,27.15
2022-08-11T08:00:44.346Z,27.07
2022-08-11T08:01:43.445Z,27.20
2022-08-11T08:02:43.306Z,27.27
2022-08-11T08:03:54.156Z,27.32
2022-08-11T08:04:47.392Z,27.48
2022-08-11T08:05:43.279Z,27.44
2022-08-11T08:06:43.293Z,27.42
2022-08-11T08:07:43.256Z,27.59
2022-08-11T08:08:43.253Z,27.63
2022-08-11T08:09:43.246Z,27.71
2022-08-11T08:10:43.216Z,27.67
2022-08-11T08:11:43.212Z,27.71
2022-08-11T08:12:43.194Z,27.70
2022-08-11T08:13:43.195Z,27.80
2022-08-11T08:14:43.186Z,27.74
2022-08-11T08:15:43.165Z,27.83
2022-08-11T08:16:43.181Z,27.98
2022-08-11T08:17:43.148Z,27.92
2022-08-11T08:18:43.132Z,28.01
2022-08-11T08:19:43.137Z,27.93
2022-08-11T08:20:43.110Z,27.95
2022-08-11T08:21:45.455Z,27.96
2022-08-11T08:22:47.851Z,28.07
2022-08-11T08:23:44.083Z,27.98
2022-08-11T08:24:43.073Z,28.08
2022-08-11T08:25:43.053Z,28.14
2022-08-11T08:26:43.038Z,28.08
2022-08-11T08:27:44.027Z,28.08
2022-08-11T08:28:43.036Z,28.19
2022-08-11T08:29:43.027Z,28.23
2022-08-11T08:30:43.008Z,28.26
2022-08-11T08:31:42.986Z,28.37
2022-08-11T08:32:42.973Z,28.37
2022-08-11T08:33:42.969Z,28.45
2022-08-11T08:34:43.277Z,28.52
2022-08-11T08:35:55.818Z,28.52
2022-08-11T08:36:43.929Z,28.59
2022-08-11T08:37:46.355Z,28.52
2022-08-11T08:38:42.904Z,28.54
2022-08-11T08:39:43.099Z,28.57
2022-08-11T08:40:43.252Z,28.67
2022-08-11T08:41:42.882Z,28.70
2022-08-11T08:42:45.301Z,28.81
2022-08-11T08:43:49.236Z,28.81
2022-08-11T08:44:45.106Z,28.84
2022-08-11T08:45:42.840Z,28.96
2022-08-11T08:46:42.816Z,29.01
2022-08-11T08:47:43.469Z,29.08
2022-08-11T08:48:42.795Z,29.07
2022-08-11T08:49:42.787Z,29.07
2022-08-11T08:50:42.781Z,29.10
2022-08-11T08:52:01.030Z,29.12
2022-08-11T08:52:44.143Z,29.10
2022-08-11T08:53:51.771Z,29.23
2022-08-11T08:54:43.728Z,29.31
2022-08-11T08:55:45.570Z,29.39
2022-08-11T08:56:42.705Z,29.42
2022-08-11T08:57:42.810Z,29.38
2022-08-11T08:58:42.678Z,29.32
2022-08-11T08:59:48.733Z,29.34
2022-08-11T09:00:43.669Z,29.44
2022-08-11T09:01:42.717Z,29.41
2022-08-11T09:02:42.641Z,29.41
2022-08-11T09:04:07.267Z,29.49
2022-08-11T09:04:43.618Z,29.42
2022-08-11T09:05:42.603Z,29.41
2022-08-11T09:06:42.600Z,29.54
2022-08-11T09:07:42.917Z,29.63
2022-08-11T09:08:42.590Z,29.69
2022-08-11T09:09:42.562Z,29.72
2022-08-11T09:10:42.556Z,29.91
2022-08-11T09:11:42.557Z,29.81
2022-08-11T09:12:42.555Z,29.98
2022-08-11T09:13:42.510Z,30.00
2022-08-11T09:14:42.526Z,30.05
2022-08-11T09:15:42.490Z,30.05
2022-08-11T09:16:42.496Z,29.93
2022-08-11T09:17:42.463Z,29.71
2022-08-11T09:18:42.481Z,29.88
2022-08-11T09:19:42.460Z,29.78
2022-08-11T09:20:42.440Z,29.90
2022-08-11T09:21:49.076Z,29.87
2022-08-11T09:22:43.412Z,29.93
2022-08-11T09:24:08.756Z,30.05
2022-08-11T09:24:43.388Z,30.05
2022-08-11T09:25:42.386Z,30.10
2022-08-11T09:26:42.367Z,30.12
2022-08-11T09:27:50.422Z,30.19
2022-08-11T09:28:43.355Z,30.30
2022-08-11T09:29:42.329Z,30.21
2022-08-11T09:30:42.327Z,30.19
2022-08-11T09:31:42.308Z,30.12
2022-08-11T09:32:42.300Z,30.05
2022-08-11T09:33:42.825Z,30.08
2022-08-11T09:34:42.277Z,30.06
2022-08-11T09:35:42.272Z,30.03
2022-08-11T09:36:42.263Z,30.16
2022-08-11T09:37:54.484Z,30.24
2022-08-11T09:38:48.816Z,30.24
2022-08-11T09:39:43.259Z,30.31
2022-08-11T09:40:42.221Z,30.34
2022-08-11T09:42:00.390Z,30.28
2022-08-11T09:42:43.188Z,30.24
2022-08-11T09:43:42.194Z,30.35
2022-08-11T09:44:42.168Z,30.31
2022-08-11T09:45:42.159Z,30.30
2022-08-11T09:46:42.148Z,30.32
2022-08-11T09:47:42.134Z,30.44
2022-08-11T09:48:42.127Z,30.34
2022-08-11T09:49:42.120Z,30.48
2022-08-11T09:50:42.105Z,30.53
2022-08-11T09:51:42.094Z,30.69
2022-08-11T09:52:57.415Z,30.69
2022-08-11T09:53:47.143Z,30.78
2022-08-11T09:54:43.066Z,30.84
2022-08-11T09:55:43.081Z,30.96
2022-08-11T09:56:42.038Z,30.96
2022-08-11T09:57:42.023Z,30.99
2022-08-11T09:58:43.575Z,31.02
2022-08-11T09:59:41.998Z,31.03
2022-08-11T10:00:41.996Z,31.10
2022-08-11T10:01:42.063Z,31.18
2022-08-11T10:02:41.980Z,31.25
2022-08-11T10:03:41.953Z,31.27
2022-08-11T10:04:41.961Z,31.43
2022-08-11T10:05:41.945Z,31.43
2022-08-11T10:06:41.924Z,31.51
2022-08-11T10:07:41.910Z,31.49
2022-08-11T10:08:41.922Z,31.33
2022-08-11T10:09:41.906Z,31.28
2022-08-11T10:10:41.904Z,31.22
2022-08-11T10:11:41.888Z,31.22
2022-08-11T10:12:41.861Z,31.33
2022-08-11T10:14:31.122Z,31.24
2022-08-11T10:14:44.828Z,31.33
2022-08-11T10:15:59.730Z,31.37
2022-08-11T10:16:42.828Z,31.31
2022-08-11T10:17:41.839Z,31.34
2022-08-11T10:18:41.818Z,31.18
2022-08-11T10:19:41.787Z,31.17
2022-08-11T10:20:41.810Z,31.03
2022-08-11T10:21:41.775Z,31.05
2022-08-11T10:22:41.750Z,31.10
2022-08-11T10:24:00.905Z,31.06
2022-08-11T10:24:42.730Z,31.14
2022-08-11T10:25:41.720Z,31.21
2022-08-11T10:26:41.724Z,31.25
2022-08-11T10:28:17.819Z,31.25
2022-08-11T10:29:09.626Z,31.10
2022-08-11T10:29:44.367Z,31.20
2022-08-11T10:30:42.333Z,31.29
2022-08-11T10:31:57.785Z,31.31
2022-08-11T10:32:57.571Z,31.31
2022-08-11T10:33:49.205Z,31.18
2022-08-11T10:34:42.619Z,31.31
2022-08-11T10:35:42.609Z,31.33
2022-08-11T10:36:41.610Z,31.43
2022-08-11T10:38:15.742Z,31.33
2022-08-11T10:38:42.611Z,31.34
2022-08-11T10:39:41.647Z,31.44
2022-08-11T10:40:41.569Z,31.43
2022-08-11T10:42:01.861Z,31.37
2022-08-11T10:42:57.190Z,31.43
2022-08-11T10:44:02.170Z,31.52
2022-08-11T10:44:42.541Z,31.54
2022-08-11T10:45:41.504Z,31.55
2022-08-11T10:46:41.490Z,31.51
2022-08-11T10:47:48.986Z,31.46
2022-08-11T10:48:42.510Z,31.40
2022-08-11T10:49:41.461Z,31.37
2022-08-11T10:50:41.445Z,31.27
2022-08-11T10:51:50.561Z,31.18
2022-08-11T10:52:42.435Z,31.10
2022-08-11T10:53:41.451Z,31.15
2022-08-11T10:54:41.409Z,31.12
2022-08-11T10:55:41.388Z,31.05
2022-08-11T10:56:41.380Z,31.07
2022-08-11T10:57:41.596Z,31.00
2022-08-11T10:58:41.378Z,30.92
2022-08-11T10:59:41.344Z,30.97
2022-08-11T11:00:41.339Z,31.07
2022-08-11T11:01:41.385Z,31.09
2022-08-11T11:02:41.317Z,31.20
2022-08-11T11:03:42.296Z,31.34
2022-08-11T11:04:41.293Z,31.36
2022-08-11T11:06:28.479Z,31.36
2022-08-11T11:06:42.270Z,31.33
2022-08-11T11:07:44.059Z,31.22
2022-08-11T11:08:41.320Z,31.06
2022-08-11T11:09:41.279Z,30.96
2022-08-11T11:10:41.234Z,31.07
2022-08-11T11:11:41.253Z,31.14
2022-08-11T11:12:41.317Z,31.12
2022-08-11T11:13:41.245Z,31.05
2022-08-11T11:14:46.204Z,31.09
2022-08-11T11:15:41.174Z,31.10
2022-08-11T11:16:41.182Z,31.07
2022-08-11T11:17:41.157Z,31.20
2022-08-11T11:18:41.190Z,31.12
2022-08-11T11:19:41.129Z,31.20
2022-08-11T11:20:46.544Z,31.25
2022-08-11T11:21:42.433Z,31.20
2022-08-11T11:22:41.254Z,31.43
2022-08-11T11:23:41.111Z,31.29
2022-08-11T11:24:41.092Z,31.55
2022-08-11T11:25:41.060Z,31.22
2022-08-11T11:26:41.109Z,31.14
2022-08-11T11:27:46.726Z,31.05
2022-08-11T11:28:42.784Z,31.07
2022-08-11T11:29:41.023Z,31.10
2022-08-11T11:30:41.034Z,31.06
2022-08-11T11:31:41.028Z,31.09
2022-08-11T11:32:41.193Z,31.07
2022-08-11T11:34:06.904Z,31.22
2022-08-11T11:34:52.999Z,31.21
2022-08-11T11:35:41.954Z,31.22
2022-08-11T11:36:40.945Z,31.27
2022-08-11T11:37:40.927Z,31.27
2022-08-11T11:38:41.927Z,31.20
2022-08-11T11:39:40.991Z,31.10
2022-08-11T11:40:40.911Z,31.10
2022-08-11T11:41:40.891Z,31.03
2022-08-11T11:42:41.038Z,31.09
2022-08-11T11:43:40.863Z,30.92
2022-08-11T11:44:40.925Z,31.06
2022-08-11T11:45:40.857Z,30.94
2022-08-11T11:46:40.840Z,30.83
2022-08-11T11:47:40.821Z,30.78
2022-08-11T11:48:40.817Z,30.70
2022-08-11T11:49:40.817Z,30.80
2022-08-11T11:50:40.803Z,30.72
2022-08-11T11:51:40.784Z,30.70
2022-08-11T11:52:40.991Z,30.75
2022-08-11T11:53:40.757Z,30.68
2022-08-11T11:54:40.783Z,30.72
2022-08-11T11:55:40.746Z,30.70
2022-08-11T11:56:40.740Z,30.78
2022-08-11T11:57:40.890Z,30.90
2022-08-11T11:58:40.742Z,30.88
2022-08-11T11:59:40.719Z,30.97
2022-08-11T12:00:43.449Z,31.09
2022-08-11T12:01:40.683Z,31.12
2022-08-11T12:02:41.687Z,31.05
2022-08-11T12:03:40.781Z,30.99
2022-08-11T12:04:40.701Z,30.99
2022-08-11T12:05:40.647Z,31.03
2022-08-11T12:06:40.628Z,30.85
2022-08-11T12:07:40.733Z,30.85
2022-08-11T12:08:40.611Z,30.84
2022-08-11T12:09:40.618Z,30.81
2022-08-11T12:10:40.594Z,30.91
2022-08-11T12:11:40.569Z,30.88
2022-08-11T12:12:40.571Z,30.87
2022-08-11T12:13:40.540Z,30.90
2022-08-11T12:14:40.534Z,30.96
2022-08-11T12:16:31.987Z,30.90
2022-08-11T12:16:41.583Z,30.99
2022-08-11T12:17:41.793Z,31.00
2022-08-11T12:18:40.489Z,31.06
2022-08-11T12:19:40.476Z,31.05
2022-08-11T12:20:41.499Z,31.12
2022-08-11T12:21:40.477Z,31.27
2022-08-11T12:22:41.448Z,31.21
2022-08-11T12:23:40.436Z,31.24
2022-08-11T12:24:40.425Z,31.27
2022-08-11T12:25:40.418Z,31.24
2022-08-11T12:26:40.422Z,31.28
2022-08-11T12:27:40.574Z,31.28
2022-08-11T12:28:40.414Z,31.25
2022-08-11T12:29:43.746Z,31.28
2022-08-11T12:30:40.399Z,31.31
2022-08-11T12:31:40.369Z,31.17
2022-08-11T12:32:40.770Z,31.34
2022-08-11T12:33:40.331Z,31.22
2022-08-11T12:34:40.434Z,31.27
2022-08-11T12:35:40.300Z,31.36
2022-08-11T12:36:41.328Z,31.36
2022-08-11T12:37:40.609Z,31.25
2022-08-11T12:38:40.277Z,31.25
2022-08-11T12:40:16.729Z,31.27
2022-08-11T12:41:11.848Z,31.24
2022-08-11T12:41:41.284Z,31.20
2022-08-11T12:42:40.259Z,31.15
2022-08-11T12:43:40.224Z,31.17
2022-08-11T12:44:40.278Z,31.25
2022-08-11T12:45:40.196Z,31.34
2022-08-11T12:46:40.197Z,31.27
2022-08-11T12:47:40.509Z,31.36
2022-08-11T12:49:00.001Z,31.37
2022-08-11T12:49:45.326Z,31.22
2022-08-11T12:50:40.147Z,31.36
2022-08-11T12:52:11.127Z,31.37
2022-08-11T12:52:41.118Z,31.36